sensor_id;sensor_type;location;lat;lon;timestamp;pressure;altitude;pressure_sealevel;temperature;humidity
46394;BME280;32099;53.588;10.176;2023-07-22T00:00:14;100707.00;;;14.82;79.15
46394;BME280;32099;53.588;10.176;2023-07-22T00:02:40;100717.34;;;14.87;78.21
46394;BME280;32099;53.588;10.176;2023-07-22T00:05:05;100712.66;;;14.87;78.03
46394;BME280;32099;53.588;10.176;2023-07-22T00:07:31;100710.56;;;14.89;78.16
46394;BME280;32099;53.588;10.176;2023-07-22T00:09:56;100700.41;;;14.90;78.59
46394;BME280;32099;53.588;10.176;2023-07-22T00:12:22;100709.50;;;14.84;78.63
46394;BME280;32099;53.588;10.176;2023-07-22T00:14:50;100714.19;;;14.83;78.79
46394;BME280;32099;53.588;10.176;2023-07-22T00:17:16;100708.69;;;14.83;79.77
46394;BME280;32099;53.588;10.176;2023-07-22T00:19:41;100710.16;;;14.86;78.64
46394;BME280;32099;53.588;10.176;2023-07-22T00:22:06;100706.13;;;14.88;77.88
46394;BME280;32099;53.588;10.176;2023-07-22T00:24:32;100709.50;;;14.90;78.77
46394;BME280;32099;53.588;10.176;2023-07-22T00:26:57;100719.84;;;14.88;79.43
46394;BME280;32099;53.588;10.176;2023-07-22T00:29:22;100716.28;;;14.88;78.92
46394;BME280;32099;53.588;10.176;2023-07-22T00:31:48;100718.16;;;14.87;79.12
46394;BME280;32099;53.588;10.176;2023-07-22T00:34:14;100713.94;;;14.85;78.48
46394;BME280;32099;53.588;10.176;2023-07-22T00:36:39;100710.97;;;14.86;79.57
46394;BME280;32099;53.588;10.176;2023-07-22T00:39:04;100707.19;;;14.80;78.87
46394;BME280;32099;53.588;10.176;2023-07-22T00:41:30;100708.47;;;14.78;80.02
46394;BME280;32099;53.588;10.176;2023-07-22T00:43:55;100716.28;;;14.74;79.94
46394;BME280;32099;53.588;10.176;2023-07-22T00:46:21;100718.16;;;14.74;79.09
46394;BME280;32099;53.588;10.176;2023-07-22T00:48:47;100720.91;;;14.74;79.34
46394;BME280;32099;53.588;10.176;2023-07-22T00:51:13;100708.25;;;14.73;81.33
46394;BME280;32099;53.588;10.176;2023-07-22T00:53:39;100715.00;;;14.70;79.84
46394;BME280;32099;53.588;10.176;2023-07-22T00:56:04;100718.16;;;14.74;79.20
46394;BME280;32099;53.588;10.176;2023-07-22T00:58:30;100707.00;;;14.75;79.23
46394;BME280;32099;53.588;10.176;2023-07-22T01:00:56;100711.63;;;14.75;80.62
46394;BME280;32099;53.588;10.176;2023-07-22T01:03:21;100708.25;;;14.73;79.61
46394;BME280;32099;53.588;10.176;2023-07-22T01:05:47;100709.31;;;14.72;78.85
46394;BME280;32099;53.588;10.176;2023-07-22T01:08:14;100714.38;;;14.75;79.39
46394;BME280;32099;53.588;10.176;2023-07-22T01:10:39;100707.19;;;14.74;80.50
46394;BME280;32099;53.588;10.176;2023-07-22T01:13:05;100707.63;;;14.71;79.36
46394;BME280;32099;53.588;10.176;2023-07-22T01:15:30;100706.34;;;14.73;81.02
46394;BME280;32099;53.588;10.176;2023-07-22T01:17:56;100711.84;;;14.73;79.30
46394;BME280;32099;53.588;10.176;2023-07-22T01:20:26;100701.91;;;14.72;79.17
46394;BME280;32099;53.588;10.176;2023-07-22T01:22:53;100702.97;;;14.71;79.20
46394;BME280;32099;53.588;10.176;2023-07-22T01:25:19;100703.84;;;14.72;78.81
46394;BME280;32099;53.588;10.176;2023-07-22T01:27:46;100696.66;;;14.71;79.33
46394;BME280;32099;53.588;10.176;2023-07-22T01:30:12;100701.28;;;14.70;78.29
46394;BME280;32099;53.588;10.176;2023-07-22T01:32:39;100698.75;;;14.69;78.51
46394;BME280;32099;53.588;10.176;2023-07-22T01:35:04;100694.53;;;14.66;78.37
46394;BME280;32099;53.588;10.176;2023-07-22T01:37:32;100697.88;;;14.61;78.99
46394;BME280;32099;53.588;10.176;2023-07-22T01:39:58;100704.00;;;14.57;79.08
46394;BME280;32099;53.588;10.176;2023-07-22T01:42:23;100705.91;;;14.56;79.01
46394;BME280;32099;53.588;10.176;2023-07-22T01:44:48;100697.03;;;14.54;80.06
46394;BME280;32099;53.588;10.176;2023-07-22T01:47:14;100705.06;;;14.49;79.54
46394;BME280;32099;53.588;10.176;2023-07-22T01:49:39;100697.44;;;14.44;79.42
46394;BME280;32099;53.588;10.176;2023-07-22T01:52:04;100700.19;;;14.44;80.04
46394;BME280;32099;53.588;10.176;2023-07-22T01:54:30;100697.88;;;14.41;80.04
46394;BME280;32099;53.588;10.176;2023-07-22T01:56:55;100700.63;;;14.41;79.09
46394;BME280;32099;53.588;10.176;2023-07-22T01:59:20;100690.47;;;14.42;79.01
46394;BME280;32099;53.588;10.176;2023-07-22T02:01:46;100691.53;;;14.41;79.45
46394;BME280;32099;53.588;10.176;2023-07-22T02:04:12;100696.38;;;14.39;79.83
46394;BME280;32099;53.588;10.176;2023-07-22T02:06:38;100694.50;;;14.39;79.02
46394;BME280;32099;53.588;10.176;2023-07-22T02:09:03;100696.38;;;14.39;78.88
46394;BME280;32099;53.588;10.176;2023-07-22T02:11:34;100690.06;;;14.38;79.43
46394;BME280;32099;53.588;10.176;2023-07-22T02:14:02;100691.34;;;14.35;80.26
46394;BME280;32099;53.588;10.176;2023-07-22T02:16:31;100697.22;;;14.32;79.41
46394;BME280;32099;53.588;10.176;2023-07-22T02:18:57;100694.06;;;14.29;79.58
46394;BME280;32099;53.588;10.176;2023-07-22T02:21:22;100699.13;;;14.25;80.02
46394;BME280;32099;53.588;10.176;2023-07-22T02:23:48;100703.75;;;14.25;79.56
46394;BME280;32099;53.588;10.176;2023-07-22T02:26:13;100699.13;;;14.25;79.33
46394;BME280;32099;53.588;10.176;2023-07-22T02:28:40;100703.34;;;14.21;79.44
46394;BME280;32099;53.588;10.176;2023-07-22T02:31:05;100703.56;;;14.19;79.40
46394;BME280;32099;53.588;10.176;2023-07-22T02:33:32;100704.78;;;14.17;80.09
46394;BME280;32099;53.588;10.176;2023-07-22T02:35:57;100708.81;;;14.14;79.18
46394;BME280;32099;53.588;10.176;2023-07-22T02:38:22;100706.28;;;14.13;79.66
46394;BME280;32099;53.588;10.176;2023-07-22T02:40:48;100715.16;;;14.15;79.91
46394;BME280;32099;53.588;10.176;2023-07-22T02:43:13;100708.59;;;14.16;78.80
46394;BME280;32099;53.588;10.176;2023-07-22T02:45:39;100713.88;;;14.17;79.17
46394;BME280;32099;53.588;10.176;2023-07-22T02:48:04;100711.31;;;14.16;79.14
46394;BME280;32099;53.588;10.176;2023-07-22T02:50:30;100714.28;;;14.14;79.06
46394;BME280;32099;53.588;10.176;2023-07-22T02:52:56;100709.03;;;14.13;79.40
46394;BME280;32099;53.588;10.176;2023-07-22T02:55:21;100705.81;;;14.09;79.44
46394;BME280;32099;53.588;10.176;2023-07-22T02:57:48;100709.22;;;14.11;79.46
46394;BME280;32099;53.588;10.176;2023-07-22T03:00:14;100710.06;;;14.12;79.27
46394;BME280;32099;53.588;10.176;2023-07-22T03:02:54;100716.59;;;14.11;79.88
46394;BME280;32099;53.588;10.176;2023-07-22T03:05:26;100713.44;;;14.07;80.13
46394;BME280;32099;53.588;10.176;2023-07-22T03:07:53;100709.00;;;14.06;79.86
46394;BME280;32099;53.588;10.176;2023-07-22T03:10:18;100718.91;;;14.07;80.68
46394;BME280;32099;53.588;10.176;2023-07-22T03:12:44;100719.31;;;14.04;80.75
46394;BME280;32099;53.588;10.176;2023-07-22T03:15:09;100714.47;;;13.99;80.42
46394;BME280;32099;53.588;10.176;2023-07-22T03:17:35;100714.47;;;13.99;79.86
46394;BME280;32099;53.588;10.176;2023-07-22T03:20:02;100722.69;;;13.99;80.58
46394;BME280;32099;53.588;10.176;2023-07-22T03:22:30;100721.81;;;13.99;80.22
46394;BME280;32099;53.588;10.176;2023-07-22T03:24:56;100715.91;;;13.95;80.78
46394;BME280;32099;53.588;10.176;2023-07-22T03:27:21;100718.22;;;13.92;81.08
46394;BME280;32099;53.588;10.176;2023-07-22T03:29:46;100719.50;;;13.89;80.34
46394;BME280;32099;53.588;10.176;2023-07-22T03:32:12;100725.63;;;13.91;79.90
46394;BME280;32099;53.588;10.176;2023-07-22T03:34:37;100731.09;;;13.91;80.43
46394;BME280;32099;53.588;10.176;2023-07-22T03:37:02;100737.00;;;13.88;80.48
46394;BME280;32099;53.588;10.176;2023-07-22T03:39:27;100738.03;;;13.87;80.04
46394;BME280;32099;53.588;10.176;2023-07-22T03:41:53;100733.38;;;13.87;81.54
46394;BME280;32099;53.588;10.176;2023-07-22T03:44:18;100738.25;;;13.85;80.28
46394;BME280;32099;53.588;10.176;2023-07-22T03:46:43;100734.88;;;13.83;82.39
46394;BME280;32099;53.588;10.176;2023-07-22T03:49:09;100734.66;;;13.85;80.44
46394;BME280;32099;53.588;10.176;2023-07-22T03:51:34;100733.59;;;13.86;80.53
46394;BME280;32099;53.588;10.176;2023-07-22T03:54:00;100735.50;;;13.85;81.50
46394;BME280;32099;53.588;10.176;2023-07-22T03:56:25;100736.75;;;13.83;80.88
46394;BME280;32099;53.588;10.176;2023-07-22T03:58:51;100732.13;;;13.83;80.83
46394;BME280;32099;53.588;10.176;2023-07-22T04:01:16;100738.25;;;13.85;81.85
46394;BME280;32099;53.588;10.176;2023-07-22T04:03:42;100729.16;;;13.85;81.32
46394;BME280;32099;53.588;10.176;2023-07-22T04:06:07;100727.91;;;13.87;82.17
46394;BME280;32099;53.588;10.176;2023-07-22T04:08:33;100727.72;;;13.89;81.20
46394;BME280;32099;53.588;10.176;2023-07-22T04:10:58;100737.41;;;13.92;80.63
46394;BME280;32099;53.588;10.176;2023-07-22T04:13:24;100738.72;;;13.96;81.42
46394;BME280;32099;53.588;10.176;2023-07-22T04:15:51;100737.19;;;13.93;81.37
46394;BME280;32099;53.588;10.176;2023-07-22T04:18:17;100740.81;;;13.94;81.77
46394;BME280;32099;53.588;10.176;2023-07-22T04:20:43;100744.81;;;13.98;81.74
46394;BME280;32099;53.588;10.176;2023-07-22T04:23:09;100747.16;;;14.01;82.37
46394;BME280;32099;53.588;10.176;2023-07-22T04:25:38;100749.69;;;14.02;83.23
46394;BME280;32099;53.588;10.176;2023-07-22T04:28:04;100750.31;;;14.04;81.58
46394;BME280;32099;53.588;10.176;2023-07-22T04:30:29;100753.06;;;14.04;81.13
46394;BME280;32099;53.588;10.176;2023-07-22T04:32:55;100757.72;;;14.04;80.78
46394;BME280;32099;53.588;10.176;2023-07-22T04:35:20;100757.72;;;14.04;81.49
46394;BME280;32099;53.588;10.176;2023-07-22T04:37:46;100762.78;;;14.07;81.12
46394;BME280;32099;53.588;10.176;2023-07-22T04:40:12;100761.31;;;14.11;81.41
46394;BME280;32099;53.588;10.176;2023-07-22T04:42:43;100757.94;;;14.16;81.16
46394;BME280;32099;53.588;10.176;2023-07-22T04:45:09;100761.97;;;14.20;81.62
46394;BME280;32099;53.588;10.176;2023-07-22T04:47:36;100755.22;;;14.23;81.81
46394;BME280;32099;53.588;10.176;2023-07-22T04:50:03;100769.97;;;14.22;81.36
46394;BME280;32099;53.588;10.176;2023-07-22T04:52:30;100776.09;;;14.24;81.70
46394;BME280;32099;53.588;10.176;2023-07-22T04:54:56;100773.78;;;14.27;80.25
46394;BME280;32099;53.588;10.176;2023-07-22T04:57:21;100782.28;;;14.39;80.28
46394;BME280;32099;53.588;10.176;2023-07-22T04:59:46;100785.06;;;14.53;79.86
46394;BME280;32099;53.588;10.176;2023-07-22T05:02:12;100788.22;;;14.63;80.80
46394;BME280;32099;53.588;10.176;2023-07-22T05:04:38;100788.41;;;14.61;80.86
46394;BME280;32099;53.588;10.176;2023-07-22T05:07:03;100790.09;;;14.56;79.97
46394;BME280;32099;53.588;10.176;2023-07-22T05:09:29;100800.03;;;14.57;80.91
46394;BME280;32099;53.588;10.176;2023-07-22T05:11:54;100806.16;;;14.59;81.95
46394;BME280;32099;53.588;10.176;2023-07-22T05:14:19;100797.50;;;14.62;80.64
46394;BME280;32099;53.588;10.176;2023-07-22T05:16:45;100808.50;;;14.62;80.46
46394;BME280;32099;53.588;10.176;2023-07-22T05:19:10;100805.97;;;14.67;80.17
46394;BME280;32099;53.588;10.176;2023-07-22T05:21:36;100804.09;;;14.74;79.77
46394;BME280;32099;53.588;10.176;2023-07-22T05:24:01;100807.28;;;14.78;80.90
46394;BME280;32099;53.588;10.176;2023-07-22T05:26:26;100802.00;;;14.76;78.65
46394;BME280;32099;53.588;10.176;2023-07-22T05:28:51;100811.94;;;14.77;79.00
46394;BME280;32099;53.588;10.176;2023-07-22T05:31:17;100814.47;;;14.79;79.31
46394;BME280;32099;53.588;10.176;2023-07-22T05:33:42;100810.84;;;14.78;80.33
46394;BME280;32099;53.588;10.176;2023-07-22T05:36:07;100804.53;;;14.78;79.09
46394;BME280;32099;53.588;10.176;2023-07-22T05:38:33;100808.75;;;14.87;79.22
46394;BME280;32099;53.588;10.176;2023-07-22T05:40:58;100817.63;;;14.89;80.24
46394;BME280;32099;53.588;10.176;2023-07-22T05:43:24;100818.91;;;14.93;79.20
46394;BME280;32099;53.588;10.176;2023-07-22T05:45:49;100824.59;;;14.99;79.85
46394;BME280;32099;53.588;10.176;2023-07-22T05:48:14;100820.38;;;15.03;79.15
46394;BME280;32099;53.588;10.176;2023-07-22T05:50:40;100819.34;;;15.17;78.74
46394;BME280;32099;53.588;10.176;2023-07-22T05:53:05;100821.88;;;15.25;78.27
46394;BME280;32099;53.588;10.176;2023-07-22T05:55:31;100830.94;;;15.26;78.84
46394;BME280;32099;53.588;10.176;2023-07-22T05:57:57;100821.63;;;15.27;78.24
46394;BME280;32099;53.588;10.176;2023-07-22T06:00:22;100828.81;;;15.35;78.67
46394;BME280;32099;53.588;10.176;2023-07-22T06:02:47;100824.59;;;15.46;77.61
46394;BME280;32099;53.588;10.176;2023-07-22T06:05:13;100826.25;;;15.53;77.15
46394;BME280;32099;53.588;10.176;2023-07-22T06:07:38;100827.75;;;15.56;76.94
46394;BME280;32099;53.588;10.176;2023-07-22T06:10:04;100827.94;;;15.61;77.69
46394;BME280;32099;53.588;10.176;2023-07-22T06:12:30;100836.13;;;15.81;77.92
46394;BME280;32099;53.588;10.176;2023-07-22T06:14:56;100839.03;;;16.07;76.13
46394;BME280;32099;53.588;10.176;2023-07-22T06:17:21;100834.53;;;16.19;76.09
46394;BME280;32099;53.588;10.176;2023-07-22T06:19:46;100835.34;;;16.33;77.10
46394;BME280;32099;53.588;10.176;2023-07-22T06:22:12;100836.19;;;16.33;75.00
46394;BME280;32099;53.588;10.176;2023-07-22T06:24:37;100848.00;;;16.34;74.41
46394;BME280;32099;53.588;10.176;2023-07-22T06:27:02;100835.25;;;16.46;74.49
46394;BME280;32099;53.588;10.176;2023-07-22T06:29:28;100840.28;;;16.56;74.46
46394;BME280;32099;53.588;10.176;2023-07-22T06:31:53;100842.59;;;16.59;73.47
46394;BME280;32099;53.588;10.176;2023-07-22T06:34:18;100849.34;;;16.63;74.24
46394;BME280;32099;53.588;10.176;2023-07-22T06:36:43;100841.50;;;16.67;75.01
46394;BME280;32099;53.588;10.176;2023-07-22T06:39:09;100837.63;;;16.75;73.39
46394;BME280;32099;53.588;10.176;2023-07-22T06:41:34;100842.88;;;16.83;74.09
46394;BME280;32099;53.588;10.176;2023-07-22T06:43:59;100845.34;;;16.98;74.11
46394;BME280;32099;53.588;10.176;2023-07-22T06:46:25;100848.19;;;17.10;74.17
46394;BME280;32099;53.588;10.176;2023-07-22T06:48:50;100843.31;;;17.12;72.90
46394;BME280;32099;53.588;10.176;2023-07-22T06:51:15;100855.00;;;17.07;71.37
46394;BME280;32099;53.588;10.176;2023-07-22T06:53:41;100856.31;;;17.05;72.10
46394;BME280;32099;53.588;10.176;2023-07-22T06:56:06;100847.53;;;17.15;73.06
46394;BME280;32099;53.588;10.176;2023-07-22T06:58:31;100858.38;;;17.35;74.43
46394;BME280;32099;53.588;10.176;2023-07-22T07:00:56;100846.75;;;17.58;73.23
46394;BME280;32099;53.588;10.176;2023-07-22T07:03:22;100860.16;;;17.73;72.71
46394;BME280;32099;53.588;10.176;2023-07-22T07:05:51;100854.94;;;17.83;71.75
46394;BME280;32099;53.588;10.176;2023-07-22T07:08:20;100856.88;;;17.83;71.33
46394;BME280;32099;53.588;10.176;2023-07-22T07:10:46;100850.38;;;17.77;69.55
46394;BME280;32099;53.588;10.176;2023-07-22T07:13:11;100853.03;;;17.84;71.53
46394;BME280;32099;53.588;10.176;2023-07-22T07:15:37;100863.69;;;17.80;70.86
46394;BME280;32099;53.588;10.176;2023-07-22T07:18:02;100863.41;;;17.88;70.32
46394;BME280;32099;53.588;10.176;2023-07-22T07:20:28;100868.84;;;18.14;69.55
46394;BME280;32099;53.588;10.176;2023-07-22T07:22:53;100864.53;;;18.37;67.13
46394;BME280;32099;53.588;10.176;2023-07-22T07:25:18;100863.50;;;18.49;67.15
46394;BME280;32099;53.588;10.176;2023-07-22T07:27:43;100862.34;;;18.57;67.87
46394;BME280;32099;53.588;10.176;2023-07-22T07:30:09;100854.44;;;18.61;66.63
46394;BME280;32099;53.588;10.176;2023-07-22T07:32:35;100875.09;;;18.58;68.54
46394;BME280;32099;53.588;10.176;2023-07-22T07:35:00;100864.06;;;18.70;66.74
46394;BME280;32099;53.588;10.176;2023-07-22T07:37:26;100876.16;;;18.57;65.82
46394;BME280;32099;53.588;10.176;2023-07-22T07:39:51;100877.16;;;18.63;66.01
46394;BME280;32099;53.588;10.176;2023-07-22T07:42:17;100876.69;;;18.96;66.06
46394;BME280;32099;53.588;10.176;2023-07-22T07:44:42;100873.13;;;19.20;63.80
46394;BME280;32099;53.588;10.176;2023-07-22T07:47:07;100875.06;;;19.31;64.32
46394;BME280;32099;53.588;10.176;2023-07-22T07:49:33;100881.31;;;19.26;64.58
46394;BME280;32099;53.588;10.176;2023-07-22T07:51:58;100886.44;;;19.11;64.01
46394;BME280;32099;53.588;10.176;2023-07-22T07:54:24;100887.16;;;18.94;63.50
46394;BME280;32099;53.588;10.176;2023-07-22T07:56:49;100884.38;;;18.94;64.38
46394;BME280;32099;53.588;10.176;2023-07-22T07:59:15;100885.44;;;18.93;64.45
46394;BME280;32099;53.588;10.176;2023-07-22T08:01:40;100896.66;;;18.80;63.91
46394;BME280;32099;53.588;10.176;2023-07-22T08:04:07;100892.28;;;18.91;64.68
46394;BME280;32099;53.588;10.176;2023-07-22T08:06:32;100896.78;;;19.16;64.03
46394;BME280;32099;53.588;10.176;2023-07-22T08:08:58;100887.56;;;19.34;64.70
46394;BME280;32099;53.588;10.176;2023-07-22T08:11:24;100900.91;;;19.37;62.06
46394;BME280;32099;53.588;10.176;2023-07-22T08:13:49;100896.97;;;19.45;62.09
46394;BME280;32099;53.588;10.176;2023-07-22T08:16:16;100889.75;;;19.43;63.98
46394;BME280;32099;53.588;10.176;2023-07-22T08:18:41;100898.72;;;19.27;63.34
46394;BME280;32099;53.588;10.176;2023-07-22T08:21:06;100897.03;;;19.14;64.11
46394;BME280;32099;53.588;10.176;2023-07-22T08:23:33;100897.72;;;18.98;63.55
46394;BME280;32099;53.588;10.176;2023-07-22T08:25:58;100897.13;;;19.07;64.90
46394;BME280;32099;53.588;10.176;2023-07-22T08:28:24;100892.00;;;19.23;63.67
46394;BME280;32099;53.588;10.176;2023-07-22T08:30:49;100889.06;;;19.60;62.83
46394;BME280;32099;53.588;10.176;2023-07-22T08:33:15;100904.44;;;19.80;61.41
46394;BME280;32099;53.588;10.176;2023-07-22T08:35:41;100899.03;;;19.97;61.41
46394;BME280;32099;53.588;10.176;2023-07-22T08:38:07;100900.97;;;20.08;61.18
46394;BME280;32099;53.588;10.176;2023-07-22T08:40:36;100909.75;;;20.05;61.85
46394;BME280;32099;53.588;10.176;2023-07-22T08:43:03;100906.25;;;20.10;62.67
46394;BME280;32099;53.588;10.176;2023-07-22T08:45:31;100904.16;;;20.29;61.00
46394;BME280;32099;53.588;10.176;2023-07-22T08:47:58;100900.34;;;20.59;58.98
46394;BME280;32099;53.588;10.176;2023-07-22T08:50:25;100905.16;;;20.92;58.58
46394;BME280;32099;53.588;10.176;2023-07-22T08:52:55;100905.13;;;21.04;56.96
46394;BME280;32099;53.588;10.176;2023-07-22T08:55:22;100905.31;;;20.86;56.74
46394;BME280;32099;53.588;10.176;2023-07-22T08:57:48;100904.34;;;20.92;57.92
46394;BME280;32099;53.588;10.176;2023-07-22T09:00:15;100912.25;;;21.17;56.85
46394;BME280;32099;53.588;10.176;2023-07-22T09:02:41;100917.22;;;21.32;52.85
46394;BME280;32099;53.588;10.176;2023-07-22T09:05:07;100916.78;;;21.23;54.46
46394;BME280;32099;53.588;10.176;2023-07-22T09:07:34;100909.84;;;21.21;54.09
46394;BME280;32099;53.588;10.176;2023-07-22T09:10:00;100915.47;;;21.09;56.50
46394;BME280;32099;53.588;10.176;2023-07-22T09:12:25;100909.91;;;21.09;55.71
46394;BME280;32099;53.588;10.176;2023-07-22T09:14:51;100905.91;;;21.34;53.97
46394;BME280;32099;53.588;10.176;2023-07-22T09:17:17;100902.44;;;21.78;54.38
46394;BME280;32099;53.588;10.176;2023-07-22T09:19:42;100907.91;;;21.90;53.80
46394;BME280;32099;53.588;10.176;2023-07-22T09:22:08;100908.19;;;21.71;55.14
46394;BME280;32099;53.588;10.176;2023-07-22T09:24:33;100919.03;;;21.38;54.88
46394;BME280;32099;53.588;10.176;2023-07-22T09:26:58;100919.38;;;20.96;54.79
46394;BME280;32099;53.588;10.176;2023-07-22T09:29:34;100913.81;;;20.67;53.47
46394;BME280;32099;53.588;10.176;2023-07-22T09:32:00;100915.88;;;20.60;56.49
46394;BME280;32099;53.588;10.176;2023-07-22T09:34:25;100908.59;;;20.71;56.01
46394;BME280;32099;53.588;10.176;2023-07-22T09:36:55;100905.56;;;20.84;54.11
46394;BME280;32099;53.588;10.176;2023-07-22T09:39:21;100901.88;;;20.78;56.35
46394;BME280;32099;53.588;10.176;2023-07-22T09:41:47;100897.50;;;20.83;54.74
46394;BME280;32099;53.588;10.176;2023-07-22T09:44:13;100900.91;;;20.73;53.43
46394;BME280;32099;53.588;10.176;2023-07-22T09:46:39;100903.13;;;20.59;56.52
46394;BME280;32099;53.588;10.176;2023-07-22T09:49:05;100900.63;;;20.45;55.58
46394;BME280;32099;53.588;10.176;2023-07-22T09:51:33;100897.63;;;20.47;53.18
46394;BME280;32099;53.588;10.176;2023-07-22T09:54:01;100900.44;;;20.76;56.63
46394;BME280;32099;53.588;10.176;2023-07-22T09:56:27;100904.28;;;21.21;54.06
46394;BME280;32099;53.588;10.176;2023-07-22T09:58:53;100902.38;;;21.21;52.99
46394;BME280;32099;53.588;10.176;2023-07-22T10:01:19;100902.84;;;21.01;53.68
46394;BME280;32099;53.588;10.176;2023-07-22T10:03:47;100900.44;;;20.76;55.85
46394;BME280;32099;53.588;10.176;2023-07-22T10:06:23;100901.59;;;20.80;56.32
46394;BME280;32099;53.588;10.176;2023-07-22T10:08:51;100897.06;;;21.20;54.53
46394;BME280;32099;53.588;10.176;2023-07-22T10:11:17;100904.47;;;21.31;53.90
46394;BME280;32099;53.588;10.176;2023-07-22T10:13:43;100888.16;;;21.18;53.23
46394;BME280;32099;53.588;10.176;2023-07-22T10:16:08;100888.66;;;21.15;52.89
46394;BME280;32099;53.588;10.176;2023-07-22T10:18:34;100889.31;;;21.05;54.70
46394;BME280;32099;53.588;10.176;2023-07-22T10:21:02;100894.69;;;20.94;52.62
46394;BME280;32099;53.588;10.176;2023-07-22T10:23:27;100886.41;;;20.83;54.91
46394;BME280;32099;53.588;10.176;2023-07-22T10:25:54;100888.25;;;20.77;56.74
46394;BME280;32099;53.588;10.176;2023-07-22T10:28:22;100887.72;;;20.92;55.71
46394;BME280;32099;53.588;10.176;2023-07-22T10:30:48;100886.06;;;21.08;53.92
46394;BME280;32099;53.588;10.176;2023-07-22T10:33:14;100876.66;;;21.09;53.65
46394;BME280;32099;53.588;10.176;2023-07-22T10:35:40;100875.28;;;20.94;50.47
46394;BME280;32099;53.588;10.176;2023-07-22T10:38:14;100890.72;;;20.90;54.80
46394;BME280;32099;53.588;10.176;2023-07-22T10:40:44;100890.19;;;21.22;52.57
46394;BME280;32099;53.588;10.176;2023-07-22T10:43:11;100895.47;;;21.58;50.84
46394;BME280;32099;53.588;10.176;2023-07-22T10:45:40;100882.34;;;21.87;50.40
46394;BME280;32099;53.588;10.176;2023-07-22T10:48:07;100894.72;;;22.19;49.09
46394;BME280;32099;53.588;10.176;2023-07-22T10:50:41;100881.53;;;22.31;48.47
46394;BME280;32099;53.588;10.176;2023-07-22T10:53:20;100889.59;;;22.33;49.35
46394;BME280;32099;53.588;10.176;2023-07-22T11:14:31;100888.81;;;22.15;48.85
46394;BME280;32099;53.588;10.176;2023-07-22T11:16:58;100886.41;;;22.41;50.96
46394;BME280;32099;53.588;10.176;2023-07-22T11:19:25;100881.53;;;22.76;49.46
46394;BME280;32099;53.588;10.176;2023-07-22T11:21:51;100885.88;;;22.94;49.76
46394;BME280;32099;53.588;10.176;2023-07-22T11:24:18;100884.53;;;23.02;47.74
46394;BME280;32099;53.588;10.176;2023-07-22T11:26:45;100891.78;;;23.03;47.36
46394;BME280;32099;53.588;10.176;2023-07-22T11:29:12;100890.84;;;22.92;46.61
46394;BME280;32099;53.588;10.176;2023-07-22T11:31:39;100886.81;;;22.77;45.95
46394;BME280;32099;53.588;10.176;2023-07-22T11:34:10;100884.41;;;22.59;47.20
46394;BME280;32099;53.588;10.176;2023-07-22T11:36:36;100881.53;;;22.54;47.18
46394;BME280;32099;53.588;10.176;2023-07-22T11:39:05;100873.38;;;22.42;47.20
46394;BME280;32099;53.588;10.176;2023-07-22T11:41:32;100868.78;;;22.35;47.92
46394;BME280;32099;53.588;10.176;2023-07-22T11:44:01;100876.81;;;22.32;45.13
46394;BME280;32099;53.588;10.176;2023-07-22T11:46:33;100876.00;;;22.31;47.62
46394;BME280;32099;53.588;10.176;2023-07-22T11:48:59;100861.84;;;22.33;50.65
46394;BME280;32099;53.588;10.176;2023-07-22T11:51:24;100860.03;;;22.44;47.47
46394;BME280;32099;53.588;10.176;2023-07-22T11:53:51;100857.31;;;22.49;48.01
46394;BME280;32099;53.588;10.176;2023-07-22T11:56:18;100858.28;;;22.60;48.12
46394;BME280;32099;53.588;10.176;2023-07-22T11:58:48;100862.00;;;22.71;49.87
46394;BME280;32099;53.588;10.176;2023-07-22T12:01:14;100863.25;;;22.85;50.46
46394;BME280;32099;53.588;10.176;2023-07-22T12:03:40;100861.06;;;22.87;46.67
46394;BME280;32099;53.588;10.176;2023-07-22T12:06:06;100866.25;;;22.78;46.92
46394;BME280;32099;53.588;10.176;2023-07-22T12:08:32;100861.31;;;22.58;48.41
46394;BME280;32099;53.588;10.176;2023-07-22T12:10:58;100859.78;;;22.45;49.50
46394;BME280;32099;53.588;10.176;2023-07-22T12:13:23;100856.31;;;22.38;49.62
46394;BME280;32099;53.588;10.176;2023-07-22T12:16:01;100860.22;;;22.37;48.80
46394;BME280;32099;53.588;10.176;2023-07-22T12:18:28;100860.38;;;22.47;49.43
46394;BME280;32099;53.588;10.176;2023-07-22T12:21:05;100863.88;;;22.65;49.66
46394;BME280;32099;53.588;10.176;2023-07-22T12:23:30;100860.09;;;22.76;49.14
46394;BME280;32099;53.588;10.176;2023-07-22T12:25:56;100857.06;;;22.78;48.10
46394;BME280;32099;53.588;10.176;2023-07-22T12:28:22;100860.31;;;22.70;46.37
46394;BME280;32099;53.588;10.176;2023-07-22T12:30:47;100850.72;;;22.55;48.00
46394;BME280;32099;53.588;10.176;2023-07-22T12:33:13;100858.38;;;22.43;50.68
46394;BME280;32099;53.588;10.176;2023-07-22T12:35:39;100850.09;;;22.26;50.29
46394;BME280;32099;53.588;10.176;2023-07-22T12:38:04;100858.94;;;22.23;50.64
46394;BME280;32099;53.588;10.176;2023-07-22T12:40:29;100855.09;;;22.29;51.07
46394;BME280;32099;53.588;10.176;2023-07-22T12:42:54;100850.28;;;22.41;49.96
46394;BME280;32099;53.588;10.176;2023-07-22T12:45:20;100844.25;;;22.49;50.23
46394;BME280;32099;53.588;10.176;2023-07-22T12:47:45;100850.66;;;22.50;49.76
46394;BME280;32099;53.588;10.176;2023-07-22T12:50:10;100845.59;;;22.42;49.67
46394;BME280;32099;53.588;10.176;2023-07-22T12:52:36;100845.09;;;22.28;50.07